createdAt,value
2022-12-11T00:02:52.909Z,18.42
2022-12-11T00:07:54.848Z,16.48
2022-12-11T00:12:56.762Z,16.70
2022-12-11T00:17:58.610Z,17.15
2022-12-11T00:23:00.428Z,18.10
2022-12-11T00:28:02.294Z,16.52
2022-12-11T00:33:04.162Z,17.17
2022-12-11T00:38:06.080Z,15.95
2022-12-11T00:43:07.957Z,16.27
2022-12-11T00:48:11.192Z,18.42
2022-12-11T00:53:13.054Z,18.35
2022-12-11T00:58:15.717Z,17.73
2022-12-11T01:03:18.178Z,17.73
2022-12-11T01:08:20.266Z,16.65
2022-12-11T01:13:22.108Z,17.85
2022-12-11T01:18:24.083Z,16.25
2022-12-11T01:23:25.973Z,16.88
2022-12-11T01:28:27.832Z,17.35
2022-12-11T01:33:29.753Z,16.75
2022-12-11T01:38:31.588Z,17.58
2022-12-11T01:43:33.434Z,17.20
2022-12-11T01:48:40.723Z,18.15
2022-12-11T01:53:50.092Z,13.27
2022-12-11T01:58:56.536Z,17.40
2022-12-11T02:03:58.925Z,16.90
2022-12-11T02:09:01.844Z,16.85
2022-12-11T02:14:28.424Z,17.15
2022-12-11T02:20:04.023Z,18.25
2022-12-11T02:25:44.558Z,15.18
2022-12-11T02:35:55.140Z,15.82
2022-12-11T02:40:59.003Z,16.27
2022-12-11T02:46:04.209Z,16.70
2022-12-11T02:51:09.201Z,16.63
2022-12-11T02:56:21.141Z,18.10
2022-12-11T03:01:23.097Z,16.60
2022-12-11T03:06:32.523Z,16.75
2022-12-11T03:16:47.358Z,17.38
2022-12-11T03:21:55.129Z,16.02
2022-12-11T03:27:11.045Z,14.95
2022-12-11T03:32:20.060Z,14.63
2022-12-11T03:37:24.216Z,14.38
2022-12-11T03:42:27.166Z,14.43
2022-12-11T03:47:30.220Z,14.10
2022-12-11T03:52:32.988Z,14.70
2022-12-11T03:57:37.844Z,14.82
2022-12-11T04:02:40.761Z,12.88
2022-12-11T04:07:42.631Z,13.30
2022-12-11T04:12:44.466Z,13.07
2022-12-11T04:18:04.721Z,11.00
2022-12-11T04:23:29.866Z,11.68
2022-12-11T04:28:31.828Z,11.93
2022-12-11T04:33:33.680Z,11.32
2022-12-11T04:38:35.638Z,12.57
2022-12-11T04:43:37.846Z,11.20
2022-12-11T04:48:40.055Z,11.82
2022-12-11T04:53:42.336Z,11.48
2022-12-11T04:58:45.319Z,11.98
2022-12-11T05:03:47.739Z,12.88
2022-12-11T05:08:49.532Z,12.15
2022-12-11T05:13:52.093Z,11.88
2022-12-11T05:18:54.531Z,11.45
2022-12-11T05:23:56.339Z,9.32
2022-12-11T05:28:58.199Z,11.05
2022-12-11T05:34:00.079Z,10.43
2022-12-11T05:39:04.067Z,13.70
2022-12-11T05:44:05.896Z,11.38
2022-12-11T05:49:08.194Z,12.68
2022-12-11T05:54:10.499Z,13.82
2022-12-11T05:59:12.332Z,13.90
2022-12-11T06:04:14.173Z,13.35
2022-12-11T06:09:17.126Z,12.68
2022-12-11T06:14:18.955Z,10.68
2022-12-11T06:19:20.793Z,11.43
2022-12-11T06:24:22.641Z,11.32
2022-12-11T06:29:24.510Z,10.77
2022-12-11T06:34:26.549Z,12.43
2022-12-11T06:39:28.342Z,10.73
2022-12-11T06:44:30.183Z,10.75
2022-12-11T06:49:31.997Z,10.38
2022-12-11T06:54:33.954Z,9.95
2022-12-11T06:59:35.867Z,10.27
2022-12-11T07:04:37.660Z,10.10
2022-12-11T07:09:41.165Z,8.95
2022-12-11T07:14:43.018Z,9.98
2022-12-11T07:19:44.896Z,10.02
2022-12-11T07:24:46.707Z,12.52
2022-12-11T07:29:48.559Z,11.63
2022-12-11T07:34:52.126Z,11.27
2022-12-11T07:39:54.150Z,11.02
2022-12-11T07:44:56.044Z,10.95
2022-12-11T07:49:57.866Z,11.40
2022-12-11T07:54:59.728Z,9.82
2022-12-11T08:00:01.568Z,10.00
2022-12-11T08:05:03.524Z,10.20
2022-12-11T08:10:05.767Z,10.20
2022-12-11T08:15:08.180Z,10.05
2022-12-11T08:20:11.290Z,10.57
2022-12-11T08:25:13.498Z,9.63
2022-12-11T08:30:15.743Z,9.57
2022-12-11T08:35:17.689Z,9.98
2022-12-11T08:40:20.398Z,10.90
2022-12-11T08:45:22.227Z,10.90
2022-12-11T08:50:24.021Z,12.27
2022-12-11T08:55:25.834Z,11.02
2022-12-11T09:00:27.727Z,11.60
2022-12-11T09:05:29.855Z,10.45
2022-12-11T09:10:32.078Z,10.23
2022-12-11T09:15:34.071Z,10.93
2022-12-11T09:20:36.170Z,9.57
2022-12-11T09:25:40.454Z,7.82
2022-12-11T09:30:42.318Z,8.38
2022-12-11T09:35:44.248Z,8.23
2022-12-11T09:40:46.141Z,9.43
2022-12-11T09:45:50.776Z,10.95
2022-12-11T09:50:55.210Z,10.02
2022-12-11T09:56:06.059Z,9.48
2022-12-11T10:01:26.458Z,11.05
2022-12-11T10:06:53.064Z,10.02
2022-12-11T10:12:22.060Z,10.23
2022-12-11T10:17:34.152Z,9.20
2022-12-11T10:22:36.559Z,9.10
2022-12-11T10:27:40.204Z,8.95
2022-12-11T10:32:53.848Z,9.70
2022-12-11T10:38:09.793Z,9.73
2022-12-11T10:43:12.635Z,8.85
2022-12-11T10:48:14.494Z,10.40
2022-12-11T10:53:22.469Z,11.48
2022-12-11T10:58:29.542Z,11.30
2022-12-11T11:03:33.286Z,10.50
2022-12-11T11:08:47.897Z,9.63
2022-12-11T11:13:50.127Z,11.07
2022-12-11T11:18:56.162Z,9.88
2022-12-11T11:23:58.336Z,10.05
2022-12-11T11:29:00.360Z,8.05
2022-12-11T11:34:06.727Z,7.95
2022-12-11T11:39:17.713Z,8.88
2022-12-11T11:44:39.625Z,8.65
2022-12-11T11:49:49.681Z,12.73
2022-12-11T11:55:02.218Z,8.65
2022-12-11T12:00:20.868Z,8.95
2022-12-11T12:05:31.054Z,8.25
2022-12-11T12:10:44.270Z,7.20
2022-12-11T12:15:56.280Z,8.15
2022-12-11T12:21:17.334Z,8.68
2022-12-11T12:26:21.868Z,8.43
2022-12-11T12:31:53.650Z,7.47
2022-12-11T12:37:00.385Z,6.63
2022-12-11T12:42:43.332Z,7.30
2022-12-11T12:47:53.217Z,6.75
2022-12-11T12:52:56.922Z,6.90
2022-12-11T12:58:05.227Z,8.35
2022-12-11T13:03:20.949Z,8.93
2022-12-11T13:08:28.928Z,9.82
2022-12-11T13:13:39.296Z,8.75
2022-12-11T13:18:42.310Z,8.63
2022-12-11T13:23:44.141Z,6.55
2022-12-11T13:28:49.321Z,6.88
2022-12-11T13:33:56.900Z,8.98
2022-12-11T13:39:06.879Z,15.68
2022-12-11T13:44:18.534Z,14.52
2022-12-11T13:49:34.540Z,14.95
2022-12-11T13:54:36.609Z,8.52
2022-12-11T13:59:43.019Z,8.60
2022-12-11T14:04:46.452Z,9.45
2022-12-11T14:09:48.347Z,8.40
2022-12-11T14:14:57.120Z,8.88
2022-12-11T14:20:01.953Z,7.63
2022-12-11T14:25:21.871Z,9.60
2022-12-11T14:30:29.872Z,6.85
2022-12-11T14:35:38.863Z,7.35
2022-12-11T14:40:44.464Z,6.70
2022-12-11T14:45:49.926Z,8.05
2022-12-11T14:50:55.319Z,7.28
2022-12-11T14:56:01.471Z,8.85
2022-12-11T15:01:06.461Z,9.40
2022-12-11T15:06:29.492Z,9.10
2022-12-11T15:11:32.872Z,9.02
2022-12-11T15:16:40.963Z,9.50
2022-12-11T15:21:42.800Z,9.27
2022-12-11T15:26:48.016Z,10.60
2022-12-11T15:32:08.710Z,11.68
2022-12-11T15:37:25.932Z,11.95
2022-12-11T15:42:39.890Z,11.55
2022-12-11T15:47:43.363Z,12.15
2022-12-11T15:52:46.422Z,10.20
2022-12-11T15:58:01.330Z,10.10
2022-12-11T16:03:03.194Z,11.75
2022-12-11T16:08:05.394Z,12.00
2022-12-11T16:13:07.224Z,10.82
2022-12-11T16:18:12.164Z,11.05
2022-12-11T16:23:16.446Z,12.15
2022-12-11T16:28:21.231Z,11.07
2022-12-11T16:33:23.080Z,12.45
2022-12-11T16:38:25.177Z,11.63
2022-12-11T16:43:27.300Z,12.25
2022-12-11T16:48:29.190Z,12.73
2022-12-11T16:53:31.117Z,12.80
2022-12-11T16:58:33.488Z,11.27
2022-12-11T17:03:35.293Z,12.60
2022-12-11T17:08:37.672Z,12.27
2022-12-11T17:13:39.523Z,10.68
2022-12-11T17:18:42.685Z,13.25
2022-12-11T17:23:45.374Z,13.52
2022-12-11T17:28:47.726Z,13.27
2022-12-11T17:33:50.067Z,11.77
2022-12-11T17:38:52.043Z,15.30
2022-12-11T17:43:55.915Z,16.60
2022-12-11T17:49:00.216Z,11.77
2022-12-11T17:54:02.314Z,12.10
2022-12-11T17:59:04.914Z,12.77
2022-12-11T18:04:07.104Z,13.27
2022-12-11T18:09:11.523Z,13.05
2022-12-11T18:14:17.213Z,12.25
2022-12-11T18:19:20.336Z,13.02
2022-12-11T18:24:23.001Z,12.10
2022-12-11T18:29:25.898Z,11.98
2022-12-11T18:34:27.894Z,13.13
2022-12-11T18:39:29.789Z,11.75
2022-12-11T18:44:31.667Z,12.13
2022-12-11T18:49:33.450Z,12.68
2022-12-11T18:54:35.575Z,11.35
2022-12-11T18:59:37.857Z,13.80
2022-12-11T19:04:39.687Z,13.40
2022-12-11T19:09:47.526Z,14.00
2022-12-11T19:14:49.568Z,12.50
2022-12-11T19:19:51.398Z,12.95
2022-12-11T19:24:53.199Z,13.10
2022-12-11T19:29:55.020Z,13.20
2022-12-11T19:34:56.829Z,15.50
2022-12-11T19:39:58.661Z,12.88
2022-12-11T19:45:00.478Z,12.00
2022-12-11T19:50:02.410Z,12.73
2022-12-11T19:55:06.285Z,12.57
2022-12-11T20:00:08.614Z,11.73
2022-12-11T20:05:14.634Z,13.68
2022-12-11T20:10:16.887Z,13.10
2022-12-11T20:15:20.726Z,13.35
2022-12-11T20:20:24.400Z,12.32
2022-12-11T20:25:27.840Z,12.55
2022-12-11T20:30:30.015Z,14.10
2022-12-11T20:35:32.289Z,13.68
2022-12-11T20:40:34.513Z,12.52
2022-12-11T20:45:36.504Z,14.57
2022-12-11T20:50:38.965Z,13.95
2022-12-11T20:55:42.614Z,12.50
2022-12-11T21:00:45.198Z,13.70
2022-12-11T21:05:47.427Z,12.95
2022-12-11T21:10:49.513Z,12.75
2022-12-11T21:15:54.150Z,10.85
2022-12-11T21:20:56.946Z,14.15
2022-12-11T21:25:59.898Z,14.20
2022-12-11T21:31:03.804Z,16.98
2022-12-11T21:36:07.062Z,15.50
2022-12-11T21:41:24.157Z,13.93
2022-12-11T21:46:29.144Z,15.13
2022-12-11T21:51:37.919Z,14.63
2022-12-11T21:56:42.662Z,15.20
2022-12-11T22:01:46.255Z,15.60
2022-12-11T22:06:48.230Z,15.48
2022-12-11T22:11:55.051Z,15.00
2022-12-11T22:16:59.946Z,20.95
2022-12-11T22:22:01.932Z,14.82
2022-12-11T22:27:04.326Z,12.95
2022-12-11T22:32:06.137Z,14.38
2022-12-11T22:37:07.977Z,13.35
2022-12-11T22:42:09.779Z,15.18
2022-12-11T22:47:11.711Z,15.93
2022-12-11T22:52:13.633Z,15.45
2022-12-11T22:57:15.498Z,14.68
2022-12-11T23:02:17.380Z,17.35
2022-12-11T23:07:19.228Z,16.10
2022-12-11T23:12:21.096Z,13.15
2022-12-11T23:17:23.242Z,14.02
2022-12-11T23:22:25.035Z,16.90
2022-12-11T23:27:26.867Z,15.13
2022-12-11T23:32:28.670Z,14.88
2022-12-11T23:37:30.463Z,13.93
2022-12-11T23:42:33.821Z,15.45
2022-12-11T23:47:35.604Z,15.50
2022-12-11T23:52:37.404Z,15.77
2022-12-11T23:57:39.376Z,14.48
